This is the latest recevied weather packets stored in our database for station/object W5GMO. If no packets are shown the sender has not sent any weather packets the latest 1 day(s).
| Time | Temp. | Humidity | Pressure | Rain* | Wind** | Luminosity | Snow |
|---|---|---|---|---|---|---|---|
| 1836274605 | 23.33° C | 74% | 1018.1 hPa | 0 mm | 0 m/s | 0 W/m² | - |
| 1836274458 | 23.33° C | 74% | 1018 hPa | 0 mm | 0 m/s | 0 W/m² | - |
| 1836274303 | 23.33° C | 73% | 1018.1 hPa | 0 mm | 0 m/s | 0 W/m² | - |
| 1836274156 | 23.33° C | 74% | 1018.1 hPa | 0 mm | 0 m/s | 0 W/m² | - |
| 1836274002 | 23.33° C | 73% | 1018.1 hPa | 0 mm | 0 m/s | 0 W/m² | - |
| 1778033823 | 24.44° C | 39% | 1011 hPa | 0 mm | 0.89 m/s, 272° | 0 W/m² | - |
| 1778033520 | 24.44° C | 39% | 1010.8 hPa | 0 mm | 1.79 m/s, 213° | 0 W/m² | - |
| 1778033217 | 24.44° C | 39% | 1010.8 hPa | 0 mm | 1.34 m/s, 221° | 0 W/m² | - |
| 1778032915 | 24.44° C | 38% | 1010.7 hPa | 0 mm | 1.34 m/s, 201° | 0 W/m² | - |
| 1778032612 | 24.44° C | 38% | 1010.8 hPa | 0 mm | 1.79 m/s, 196° | 0 W/m² | - |
| 1778032309 | 25° C | 38% | 1010.6 hPa | 0 mm | 1.79 m/s, 230° | 0 W/m² | - |
| 1778032007 | 25° C | 37% | 1010.5 hPa | 0 mm | 1.79 m/s, 261° | 0 W/m² | - |
| 1778031702 | 25° C | 37% | 1010.5 hPa | 0 mm | 1.79 m/s, 257° | 0 W/m² | - |
| 1778031400 | 25° C | 37% | 1010.5 hPa | 0 mm | 1.79 m/s, 237° | 0 W/m² | - |
| 1778031097 | 25° C | 36% | 1010.3 hPa | 0 mm | 1.79 m/s, 195° | 0 W/m² | - |
| 1778030793 | 25° C | 36% | 1010.4 hPa | 0 mm | 1.79 m/s, 277° | 0 W/m² | - |
| 1778030490 | 25° C | 36% | 1010.4 hPa | 0 mm | 2.68 m/s, 245° | 0 W/m² | - |
| 1778030188 | 25° C | 35% | 1010.4 hPa | 0 mm | 0 m/s | 0 W/m² | - |
| 1778029883 | 25° C | 35% | 1010.2 hPa | 0 mm | 1.34 m/s, 181° | 0 W/m² | - |
| 1778029583 | 25° C | 35% | 1010.2 hPa | 0 mm | 1.79 m/s, 235° | 0 W/m² | - |
| 1778029279 | 25.56° C | 34% | 1010.3 hPa | 0 mm | 1.79 m/s, 278° | 0 W/m² | - |
| 1778028976 | 25.56° C | 34% | 1010 hPa | 0 mm | 0.89 m/s, 263° | 0 W/m² | - |
| 1778028672 | 25.56° C | 33% | 1010.2 hPa | 0 mm | 2.24 m/s, 226° | 0 W/m² | - |
| 1778028369 | 25.56° C | 33% | 1010.1 hPa | 0 mm | 1.34 m/s, 202° | 0 W/m² | - |
| 1778028066 | 25.56° C | 32% | 1009.9 hPa | 0 mm | 0.89 m/s, 262° | 0 W/m² | - |
* Rain latest hour (hover to see other rain measurements)
** Current wind speed in m/s (hover to see current wind gust speed)